createdAt,value
2022-09-01T00:02:18.371Z,1.10
2022-09-01T00:08:20.780Z,1.08
2022-09-01T00:14:30.798Z,1.10
2022-09-01T00:20:33.229Z,1.20
2022-09-01T00:26:35.457Z,1.08
2022-09-01T00:32:37.243Z,1.00
2022-09-01T00:38:39.247Z,1.20
2022-09-01T00:44:41.062Z,1.27
2022-09-01T00:50:43.442Z,1.25
2022-09-01T00:56:57.367Z,1.25
2022-09-01T01:03:00.042Z,1.10
2022-09-01T01:09:01.972Z,1.20
2022-09-01T01:15:05.447Z,1.20
2022-09-01T01:21:31.586Z,1.15
2022-09-01T01:27:38.070Z,1.17
2022-09-01T01:33:48.890Z,1.02
2022-09-01T01:39:51.593Z,1.30
2022-09-01T01:45:59.192Z,1.05
2022-09-01T01:52:08.124Z,1.30
2022-09-01T01:58:12.275Z,1.42
2022-09-01T02:04:16.831Z,1.33
2022-09-01T02:10:19.774Z,1.40
2022-09-01T02:16:23.166Z,1.30
2022-09-01T02:22:25.243Z,1.15
2022-09-01T02:28:28.898Z,1.20
2022-09-01T02:34:30.818Z,1.40
2022-09-01T02:40:33.659Z,1.30
2022-09-01T02:46:37.950Z,1.33
2022-09-01T02:52:40.453Z,1.38
2022-09-01T02:58:47.346Z,1.42
2022-09-01T03:04:54.365Z,1.30
2022-09-01T03:11:01.448Z,1.30
2022-09-01T03:17:03.342Z,1.40
2022-09-01T03:23:10.559Z,1.30
2022-09-01T03:29:13.327Z,1.38
2022-09-01T03:35:16.115Z,1.50
2022-09-01T03:41:22.718Z,1.20
2022-09-01T03:47:24.545Z,1.30
2022-09-01T03:53:27.609Z,1.42
2022-09-01T03:59:32.756Z,1.38
2022-09-01T04:05:37.715Z,1.77
2022-09-01T04:11:45.792Z,1.55
2022-09-01T04:18:07.440Z,1.40
2022-09-01T04:24:12.115Z,1.60
2022-09-01T04:30:14.270Z,1.77
2022-09-01T04:36:31.805Z,1.55
2022-09-01T04:42:34.902Z,1.70
2022-09-01T04:48:38.386Z,1.60
2022-09-01T04:54:40.407Z,1.63
2022-09-01T05:00:42.310Z,1.63
2022-09-01T05:06:47.192Z,1.70
2022-09-01T05:12:50.863Z,1.60
2022-09-01T05:18:57.052Z,1.50
2022-09-01T05:25:13.079Z,1.52
2022-09-01T05:31:20.925Z,1.80
2022-09-01T05:37:23.438Z,1.92
2022-09-01T05:43:27.753Z,1.65
2022-09-01T05:49:33.068Z,1.95
2022-09-01T05:55:38.099Z,2.08
2022-09-01T06:01:41.161Z,2.00
2022-09-01T06:07:44.243Z,1.90
2022-09-01T06:13:55.256Z,1.65
2022-09-01T06:19:57.972Z,1.75
2022-09-01T06:26:00.843Z,1.75
2022-09-01T06:32:10.339Z,2.08
2022-09-01T06:38:15.326Z,1.50
2022-09-01T06:44:23.229Z,1.75
2022-09-01T06:56:55.325Z,1.55
2022-09-01T07:02:59.066Z,1.80
2022-09-01T07:09:20.940Z,1.30
2022-09-01T07:22:35.315Z,1.70
2022-09-01T07:28:37.341Z,1.50
2022-09-01T07:34:39.930Z,1.35
2022-09-01T07:53:51.069Z,1.45
2022-09-01T07:59:55.779Z,1.30
2022-09-01T08:06:19.505Z,1.48
2022-09-01T08:12:28.991Z,1.67
2022-09-01T08:18:48.206Z,1.30
2022-09-01T08:24:59.044Z,1.50
2022-09-01T08:31:10.476Z,1.67
2022-09-01T08:37:13.380Z,1.50
2022-09-01T08:43:46.388Z,1.40
2022-09-01T08:49:50.696Z,1.70
2022-09-01T08:55:59.529Z,1.52
2022-09-01T09:02:37.880Z,1.08
2022-09-01T09:08:48.453Z,1.50
2022-09-01T09:15:40.024Z,1.10
2022-09-01T09:21:44.683Z,0.90
2022-09-01T09:27:48.830Z,1.10
2022-09-01T09:33:52.770Z,1.00
2022-09-01T09:40:10.420Z,1.20
2022-09-01T09:46:43.656Z,1.10
2022-09-01T09:52:48.024Z,1.10
2022-09-01T09:58:52.594Z,0.80
2022-09-01T10:04:56.034Z,1.25
2022-09-01T10:10:58.830Z,1.02
2022-09-01T10:17:26.062Z,0.93
2022-09-01T10:23:34.657Z,1.10
2022-09-01T10:30:12.047Z,1.02
2022-09-01T10:36:16.135Z,0.97
2022-09-01T10:42:19.538Z,1.00
2022-09-01T10:48:48.559Z,0.82
2022-09-01T10:54:51.517Z,0.77
2022-09-01T11:07:33.480Z,0.80
2022-09-01T11:13:50.119Z,0.70
2022-09-01T11:19:58.103Z,0.95
2022-09-01T11:26:20.520Z,0.65
2022-09-01T11:32:27.702Z,0.70
2022-09-01T11:38:38.289Z,0.60
2022-09-01T11:45:03.065Z,0.70
2022-09-01T11:51:05.765Z,0.60
2022-09-01T11:57:17.646Z,0.70
2022-09-01T12:03:30.382Z,0.63
2022-09-01T12:09:39.313Z,0.65
2022-09-01T12:16:07.135Z,0.70
2022-09-01T12:22:18.504Z,0.68
2022-09-01T12:28:20.248Z,0.65
2022-09-01T12:34:33.878Z,0.90
2022-09-01T12:40:36.349Z,0.82
2022-09-01T12:46:46.665Z,0.60
2022-09-01T12:52:52.392Z,0.80
2022-09-01T12:59:35.794Z,0.60
2022-09-01T13:05:44.275Z,0.70
2022-09-01T13:12:06.290Z,0.70
2022-09-01T13:18:09.044Z,0.73
2022-09-01T13:24:10.767Z,0.70
2022-09-01T13:30:15.320Z,0.50
2022-09-01T13:42:38.778Z,0.70
2022-09-01T13:55:02.244Z,0.63
2022-09-01T14:01:05.010Z,0.70
2022-09-01T14:07:06.994Z,0.60
2022-09-01T14:13:10.232Z,0.65
2022-09-01T14:19:12.708Z,0.60
2022-09-01T14:25:16.160Z,0.60
2022-09-01T14:31:19.190Z,0.50
2022-09-01T14:37:21.399Z,0.60
2022-09-01T14:43:23.174Z,0.80
2022-09-01T14:49:24.947Z,0.50
2022-09-01T14:55:29.230Z,0.60
2022-09-01T15:01:34.654Z,0.80
2022-09-01T15:07:37.881Z,0.65
2022-09-01T15:13:40.705Z,0.50
2022-09-01T15:19:43.572Z,0.50
2022-09-01T15:25:45.847Z,0.50
2022-09-01T15:31:47.633Z,0.40
2022-09-01T15:37:51.509Z,0.52
2022-09-01T15:43:53.852Z,0.50
2022-09-01T15:49:55.703Z,0.60
2022-09-01T15:55:57.474Z,0.60
2022-09-01T16:01:59.310Z,0.60
2022-09-01T16:08:02.256Z,0.70
2022-09-01T16:14:04.987Z,0.63
2022-09-01T16:20:21.620Z,0.70
2022-09-01T16:26:23.815Z,0.70
2022-09-01T16:32:27.063Z,0.60
2022-09-01T16:38:34.849Z,0.52
2022-09-01T16:45:03.799Z,0.65
2022-09-01T16:51:38.040Z,0.52
2022-09-01T16:57:48.363Z,0.50
2022-09-01T17:03:54.136Z,0.40
2022-09-01T17:10:12.891Z,0.60
2022-09-01T17:16:38.077Z,0.50
2022-09-01T17:22:46.284Z,0.55
2022-09-01T17:29:01.654Z,0.60
2022-09-01T17:35:23.297Z,0.60
2022-09-01T17:41:44.001Z,0.40
2022-09-01T17:48:15.175Z,0.70
2022-09-01T17:54:52.022Z,0.55
2022-09-01T18:01:09.852Z,0.50
2022-09-01T18:07:35.054Z,0.70
2022-09-01T18:14:02.047Z,0.70
2022-09-01T18:20:22.196Z,0.70
2022-09-01T18:26:38.710Z,0.60
2022-09-01T18:32:46.270Z,0.73
2022-09-01T18:39:06.855Z,0.47
2022-09-01T18:45:41.844Z,0.80
2022-09-01T18:52:00.670Z,0.50
2022-09-01T18:58:08.380Z,0.60
2022-09-01T19:04:19.575Z,0.60
2022-09-01T19:10:24.544Z,0.70
2022-09-01T19:17:08.529Z,1.20
2022-09-01T19:23:40.450Z,0.80
2022-09-01T19:29:53.585Z,0.73
2022-09-01T19:36:04.661Z,0.90
2022-09-01T19:42:22.477Z,0.80
2022-09-01T19:48:28.110Z,0.70
2022-09-01T19:54:51.924Z,0.70
2022-09-01T20:00:57.502Z,0.60
2022-09-01T20:07:01.052Z,0.63
2022-09-01T20:13:34.017Z,0.85
2022-09-01T20:19:46.192Z,0.80
2022-09-01T20:26:12.100Z,0.77
2022-09-01T20:32:22.655Z,0.70
2022-09-01T20:39:06.793Z,0.70
2022-09-01T20:45:18.728Z,0.70
2022-09-01T20:51:29.797Z,0.80
2022-09-01T20:57:43.055Z,0.80
2022-09-01T21:04:08.158Z,1.08
2022-09-01T21:10:21.076Z,1.00
2022-09-01T21:16:49.583Z,1.13
2022-09-01T21:22:51.893Z,0.80
2022-09-01T21:28:55.955Z,0.77
2022-09-01T21:34:58.998Z,0.82
2022-09-01T21:41:01.513Z,0.90
2022-09-01T21:47:04.232Z,1.00
2022-09-01T21:53:07.131Z,0.80
2022-09-01T21:59:11.999Z,0.98
2022-09-01T22:05:14.263Z,0.80
2022-09-01T22:11:16.495Z,0.93
2022-09-01T22:17:18.236Z,1.00
2022-09-01T22:23:20.386Z,0.73
2022-09-01T22:29:22.688Z,0.85
2022-09-01T22:35:24.450Z,0.90
2022-09-01T22:41:28.773Z,1.00
2022-09-01T22:47:30.564Z,0.90
2022-09-01T22:53:39.103Z,0.90
2022-09-01T22:59:41.946Z,1.00
2022-09-01T23:05:44.710Z,0.90
2022-09-01T23:11:47.613Z,0.88
2022-09-01T23:17:49.447Z,0.85
2022-09-01T23:23:58.537Z,0.90
2022-09-01T23:30:00.696Z,0.90
2022-09-01T23:36:05.765Z,0.95
2022-09-01T23:42:07.835Z,0.90
2022-09-01T23:48:09.909Z,0.80
2022-09-01T23:54:14.734Z,1.05
